sensor_id;sensor_type;location;lat;lon;timestamp;pressure;altitude;pressure_sealevel;temperature;humidity
45323;BME280;31382;50.200;8.674;2023-09-12T00:03:22;99922.53;;;21.65;60.50
45323;BME280;31382;50.200;8.674;2023-09-12T00:08:24;99929.25;;;21.52;60.83
45323;BME280;31382;50.200;8.674;2023-09-12T00:13:26;99923.50;;;21.49;61.16
45323;BME280;31382;50.200;8.674;2023-09-12T00:18:27;99924.31;;;21.49;61.00
45323;BME280;31382;50.200;8.674;2023-09-12T00:23:30;99906.56;;;21.52;61.08
45323;BME280;31382;50.200;8.674;2023-09-12T00:28:31;99902.44;;;21.49;61.10
45323;BME280;31382;50.200;8.674;2023-09-12T00:33:34;99890.13;;;21.47;61.00
45323;BME280;31382;50.200;8.674;2023-09-12T00:38:38;99891.69;;;21.43;60.98
45323;BME280;31382;50.200;8.674;2023-09-12T00:43:41;99884.81;;;21.40;61.03
45323;BME280;31382;50.200;8.674;2023-09-12T00:48:42;99880.13;;;21.35;61.29
45323;BME280;31382;50.200;8.674;2023-09-12T00:53:44;99876.50;;;21.30;61.75
45323;BME280;31382;50.200;8.674;2023-09-12T00:58:45;99884.88;;;21.18;61.67
45323;BME280;31382;50.200;8.674;2023-09-12T01:03:47;99885.16;;;20.94;62.41
45323;BME280;31382;50.200;8.674;2023-09-12T01:08:49;99888.47;;;20.96;62.85
45323;BME280;31382;50.200;8.674;2023-09-12T01:13:50;99877.53;;;20.96;62.39
45323;BME280;31382;50.200;8.674;2023-09-12T01:18:51;99875.75;;;20.85;62.69
45323;BME280;31382;50.200;8.674;2023-09-12T01:29:11;99877.56;;;20.74;62.69
45323;BME280;31382;50.200;8.674;2023-09-12T01:34:14;99880.78;;;20.71;63.19
45323;BME280;31382;50.200;8.674;2023-09-12T01:39:15;99887.03;;;20.67;63.41
45323;BME280;31382;50.200;8.674;2023-09-12T01:44:17;99870.84;;;20.60;63.12
45323;BME280;31382;50.200;8.674;2023-09-12T01:49:22;99865.84;;;20.57;63.08
45323;BME280;31382;50.200;8.674;2023-09-12T01:54:26;99857.91;;;20.55;63.36
45323;BME280;31382;50.200;8.674;2023-09-12T01:59:28;99864.31;;;20.44;63.75
45323;BME280;31382;50.200;8.674;2023-09-12T02:04:30;99870.72;;;20.33;64.10
45323;BME280;31382;50.200;8.674;2023-09-12T02:09:32;99867.41;;;20.31;64.22
45323;BME280;31382;50.200;8.674;2023-09-12T02:14:33;99871.22;;;20.30;64.50
45323;BME280;31382;50.200;8.674;2023-09-12T02:19:35;99887.06;;;20.11;64.85
45323;BME280;31382;50.200;8.674;2023-09-12T02:24:36;99892.00;;;20.14;64.90
45323;BME280;31382;50.200;8.674;2023-09-12T02:29:39;99886.72;;;20.24;64.60
45323;BME280;31382;50.200;8.674;2023-09-12T02:34:41;99885.72;;;20.30;64.77
45323;BME280;31382;50.200;8.674;2023-09-12T02:39:42;99879.41;;;20.30;64.52
45323;BME280;31382;50.200;8.674;2023-09-12T02:44:43;99885.44;;;20.32;64.53
45323;BME280;31382;50.200;8.674;2023-09-12T02:49:45;99881.31;;;20.29;64.38
45323;BME280;31382;50.200;8.674;2023-09-12T02:54:46;99876.66;;;20.30;64.77
45323;BME280;31382;50.200;8.674;2023-09-12T02:59:48;99870.91;;;20.26;64.27
45323;BME280;31382;50.200;8.674;2023-09-12T03:04:49;99870.00;;;20.20;64.44
45323;BME280;31382;50.200;8.674;2023-09-12T03:09:51;99872.97;;;20.19;64.79
45323;BME280;31382;50.200;8.674;2023-09-12T03:14:52;99862.25;;;20.12;64.72
45323;BME280;31382;50.200;8.674;2023-09-12T03:19:53;99873.69;;;19.92;65.28
45323;BME280;31382;50.200;8.674;2023-09-12T03:24:55;99883.78;;;19.75;65.89
45323;BME280;31382;50.200;8.674;2023-09-12T03:29:56;99867.72;;;19.78;65.76
45323;BME280;31382;50.200;8.674;2023-09-12T03:34:58;99858.31;;;19.86;65.43
45323;BME280;31382;50.200;8.674;2023-09-12T03:39:59;99862.69;;;19.87;65.41
45323;BME280;31382;50.200;8.674;2023-09-12T03:45:01;99853.19;;;19.90;65.45
45323;BME280;31382;50.200;8.674;2023-09-12T03:50:02;99848.31;;;19.92;65.79
45323;BME280;31382;50.200;8.674;2023-09-12T03:55:04;99856.00;;;19.95;65.46
45323;BME280;31382;50.200;8.674;2023-09-12T04:00:06;99838.88;;;19.99;65.75
45323;BME280;31382;50.200;8.674;2023-09-12T04:05:09;99847.88;;;20.00;65.89
45323;BME280;31382;50.200;8.674;2023-09-12T04:10:11;99855.75;;;19.96;66.36
45323;BME280;31382;50.200;8.674;2023-09-12T04:15:13;99848.72;;;20.00;66.30
45323;BME280;31382;50.200;8.674;2023-09-12T04:20:14;99856.34;;;19.98;66.48
45323;BME280;31382;50.200;8.674;2023-09-12T04:25:16;99857.38;;;19.97;66.78
45323;BME280;31382;50.200;8.674;2023-09-12T04:30:17;99849.69;;;20.11;66.29
45323;BME280;31382;50.200;8.674;2023-09-12T04:35:19;99853.63;;;20.20;66.35
45323;BME280;31382;50.200;8.674;2023-09-12T04:40:21;99866.84;;;20.29;65.93
45323;BME280;31382;50.200;8.674;2023-09-12T04:45:23;99867.59;;;20.24;66.26
45323;BME280;31382;50.200;8.674;2023-09-12T04:50:24;99873.53;;;20.38;66.20
45323;BME280;31382;50.200;8.674;2023-09-12T04:55:26;99874.16;;;20.45;65.87
45323;BME280;31382;50.200;8.674;2023-09-12T05:00:27;99860.63;;;20.55;65.69
45323;BME280;31382;50.200;8.674;2023-09-12T05:05:29;99871.72;;;20.66;65.77
45323;BME280;31382;50.200;8.674;2023-09-12T05:10:31;99867.56;;;20.63;66.03
45323;BME280;31382;50.200;8.674;2023-09-12T05:15:32;99867.00;;;20.61;66.32
45323;BME280;31382;50.200;8.674;2023-09-12T05:20:34;99855.34;;;20.66;66.19
45323;BME280;31382;50.200;8.674;2023-09-12T05:25:35;99854.81;;;20.69;66.43
45323;BME280;31382;50.200;8.674;2023-09-12T05:30:37;99852.97;;;20.74;66.08
45323;BME280;31382;50.200;8.674;2023-09-12T05:35:38;99848.56;;;20.73;66.44
45323;BME280;31382;50.200;8.674;2023-09-12T05:40:40;99852.25;;;20.84;66.07
45323;BME280;31382;50.200;8.674;2023-09-12T05:45:42;99865.41;;;20.65;66.41
45323;BME280;31382;50.200;8.674;2023-09-12T05:50:43;99868.47;;;20.69;66.71
45323;BME280;31382;50.200;8.674;2023-09-12T05:55:45;99860.53;;;20.89;66.19
45323;BME280;31382;50.200;8.674;2023-09-12T06:00:47;99864.25;;;21.05;65.83
45323;BME280;31382;50.200;8.674;2023-09-12T06:05:49;99873.63;;;21.14;65.79
45323;BME280;31382;50.200;8.674;2023-09-12T06:10:51;99880.69;;;21.10;66.21
45323;BME280;31382;50.200;8.674;2023-09-12T06:15:54;99873.16;;;21.23;65.61
45323;BME280;31382;50.200;8.674;2023-09-12T06:20:57;99884.22;;;21.33;65.60
45323;BME280;31382;50.200;8.674;2023-09-12T06:25:58;99884.34;;;21.43;65.36
45323;BME280;31382;50.200;8.674;2023-09-12T06:31:00;99882.19;;;21.50;65.57
45323;BME280;31382;50.200;8.674;2023-09-12T06:36:01;99875.97;;;21.60;65.48
45323;BME280;31382;50.200;8.674;2023-09-12T06:41:03;99870.00;;;21.63;65.16
45323;BME280;31382;50.200;8.674;2023-09-12T06:46:05;99873.88;;;21.67;65.35
45323;BME280;31382;50.200;8.674;2023-09-12T06:51:08;99864.09;;;21.76;65.06
45323;BME280;31382;50.200;8.674;2023-09-12T06:56:17;99873.19;;;21.87;64.76
45323;BME280;31382;50.200;8.674;2023-09-12T07:01:18;99886.94;;;21.92;64.70
45323;BME280;31382;50.200;8.674;2023-09-12T07:06:20;99889.69;;;21.97;64.58
45323;BME280;31382;50.200;8.674;2023-09-12T07:11:21;99886.44;;;22.01;64.80
45323;BME280;31382;50.200;8.674;2023-09-12T07:16:25;99884.88;;;22.10;64.38
45323;BME280;31382;50.200;8.674;2023-09-12T07:21:26;99880.03;;;22.27;63.99
45323;BME280;31382;50.200;8.674;2023-09-12T07:26:28;99885.06;;;22.41;63.99
45323;BME280;31382;50.200;8.674;2023-09-12T07:31:29;99900.75;;;22.55;63.95
45323;BME280;31382;50.200;8.674;2023-09-12T07:36:31;99899.47;;;22.73;63.79
45323;BME280;31382;50.200;8.674;2023-09-12T07:41:33;99885.28;;;22.92;63.41
45323;BME280;31382;50.200;8.674;2023-09-12T07:46:34;99892.16;;;23.00;63.35
45323;BME280;31382;50.200;8.674;2023-09-12T07:51:35;99884.84;;;23.21;62.83
45323;BME280;31382;50.200;8.674;2023-09-12T07:56:37;99899.13;;;23.33;62.37
45323;BME280;31382;50.200;8.674;2023-09-12T08:01:38;99887.34;;;23.58;61.66
45323;BME280;31382;50.200;8.674;2023-09-12T08:06:40;99887.91;;;23.81;61.43
45323;BME280;31382;50.200;8.674;2023-09-12T08:11:57;99892.03;;;23.99;60.95
45323;BME280;31382;50.200;8.674;2023-09-12T08:16:59;99891.72;;;24.15;59.92
45323;BME280;31382;50.200;8.674;2023-09-12T08:22:00;99899.63;;;24.32;59.97
45323;BME280;31382;50.200;8.674;2023-09-12T08:27:02;99888.63;;;24.53;59.01
45323;BME280;31382;50.200;8.674;2023-09-12T08:32:04;99897.38;;;24.70;58.33
45323;BME280;31382;50.200;8.674;2023-09-12T08:37:06;99890.13;;;24.90;57.91
45323;BME280;31382;50.200;8.674;2023-09-12T08:42:14;99890.03;;;25.10;57.71
45323;BME280;31382;50.200;8.674;2023-09-12T08:47:19;99899.56;;;25.28;56.77
45323;BME280;31382;50.200;8.674;2023-09-12T08:52:22;99889.25;;;25.49;56.59
45323;BME280;31382;50.200;8.674;2023-09-12T08:57:24;99901.97;;;25.75;55.46
45323;BME280;31382;50.200;8.674;2023-09-12T09:02:26;99899.38;;;25.88;54.76
45323;BME280;31382;50.200;8.674;2023-09-12T09:07:28;99894.66;;;25.94;54.27
45323;BME280;31382;50.200;8.674;2023-09-12T09:12:31;99888.09;;;26.19;53.43
45323;BME280;31382;50.200;8.674;2023-09-12T09:17:32;99884.81;;;26.41;52.61
45323;BME280;31382;50.200;8.674;2023-09-12T09:22:37;99881.56;;;26.63;52.78
45323;BME280;31382;50.200;8.674;2023-09-12T09:27:39;99887.34;;;26.86;51.86
45323;BME280;31382;50.200;8.674;2023-09-12T09:32:40;99886.06;;;26.97;51.57
45323;BME280;31382;50.200;8.674;2023-09-12T09:37:42;99865.13;;;27.15;50.91
45323;BME280;31382;50.200;8.674;2023-09-12T09:42:43;99870.75;;;27.29;50.68
45323;BME280;31382;50.200;8.674;2023-09-12T09:47:45;99875.34;;;27.53;50.20
45323;BME280;31382;50.200;8.674;2023-09-12T09:52:53;99872.06;;;27.50;49.87
45323;BME280;31382;50.200;8.674;2023-09-12T09:57:55;99874.16;;;27.59;49.54
45323;BME280;31382;50.200;8.674;2023-09-12T10:02:58;99872.59;;;27.85;48.71
45323;BME280;31382;50.200;8.674;2023-09-12T10:08:02;99868.94;;;27.90;49.07
45323;BME280;31382;50.200;8.674;2023-09-12T10:13:05;99872.25;;;28.20;48.19
45323;BME280;31382;50.200;8.674;2023-09-12T10:18:09;99857.03;;;28.36;47.97
45323;BME280;31382;50.200;8.674;2023-09-12T10:23:37;99858.16;;;28.77;46.91
45323;BME280;31382;50.200;8.674;2023-09-12T10:28:43;99852.25;;;29.06;46.37
45323;BME280;31382;50.200;8.674;2023-09-12T10:33:49;99833.84;;;29.69;45.49
45323;BME280;31382;50.200;8.674;2023-09-12T10:38:50;99833.97;;;30.27;44.27
45323;BME280;31382;50.200;8.674;2023-09-12T10:43:53;99840.31;;;30.58;43.79
45323;BME280;31382;50.200;8.674;2023-09-12T10:48:55;99839.09;;;31.17;42.01
45323;BME280;31382;50.200;8.674;2023-09-12T10:53:56;99830.91;;;31.55;41.16
45323;BME280;31382;50.200;8.674;2023-09-12T11:09:24;99822.81;;;31.89;38.45
45323;BME280;31382;50.200;8.674;2023-09-12T11:14:26;99823.59;;;31.98;37.78
45323;BME280;31382;50.200;8.674;2023-09-12T11:19:28;99822.44;;;31.99;37.63
45323;BME280;31382;50.200;8.674;2023-09-12T11:24:43;99826.59;;;31.75;37.80
45323;BME280;31382;50.200;8.674;2023-09-12T11:29:45;99835.66;;;31.55;38.28
45323;BME280;31382;50.200;8.674;2023-09-12T11:34:48;99824.38;;;31.34;38.31
45323;BME280;31382;50.200;8.674;2023-09-12T11:39:50;99827.00;;;31.48;38.10
45323;BME280;31382;50.200;8.674;2023-09-12T11:44:52;99818.19;;;31.54;38.14
45323;BME280;31382;50.200;8.674;2023-09-12T11:49:54;99819.97;;;31.68;37.75
45323;BME280;31382;50.200;8.674;2023-09-12T11:54:55;99829.28;;;31.37;38.54
45323;BME280;31382;50.200;8.674;2023-09-12T11:59:56;99821.94;;;31.23;38.61
45323;BME280;31382;50.200;8.674;2023-09-12T12:04:58;99824.84;;;31.36;38.55
45323;BME280;31382;50.200;8.674;2023-09-12T12:10:00;99820.06;;;31.80;38.00
45323;BME280;31382;50.200;8.674;2023-09-12T12:15:02;99812.78;;;32.14;37.72
45323;BME280;31382;50.200;8.674;2023-09-12T12:20:04;99814.53;;;32.48;36.80
45323;BME280;31382;50.200;8.674;2023-09-12T12:25:10;99803.06;;;32.58;37.40
45323;BME280;31382;50.200;8.674;2023-09-12T12:30:13;99795.41;;;32.97;36.58
45323;BME280;31382;50.200;8.674;2023-09-12T12:35:21;99795.75;;;32.75;36.75
45323;BME280;31382;50.200;8.674;2023-09-12T12:40:42;99799.69;;;32.95;36.45
45323;BME280;31382;50.200;8.674;2023-09-12T12:45:52;99791.03;;;33.09;36.22
45323;BME280;31382;50.200;8.674;2023-09-12T12:50:54;99799.00;;;33.19;36.05
45323;BME280;31382;50.200;8.674;2023-09-12T12:55:56;99792.84;;;33.47;36.18
45323;BME280;31382;50.200;8.674;2023-09-12T13:00:58;99782.13;;;33.36;36.14
45323;BME280;31382;50.200;8.674;2023-09-12T13:06:00;99777.28;;;33.46;35.13
45323;BME280;31382;50.200;8.674;2023-09-12T13:11:01;99773.25;;;33.55;36.00
45323;BME280;31382;50.200;8.674;2023-09-12T13:16:04;99759.56;;;33.75;35.51
45323;BME280;31382;50.200;8.674;2023-09-12T13:21:06;99758.59;;;33.58;35.37
45323;BME280;31382;50.200;8.674;2023-09-12T13:26:08;99744.50;;;33.88;35.15
45323;BME280;31382;50.200;8.674;2023-09-12T13:31:10;99743.31;;;34.14;34.86
45323;BME280;31382;50.200;8.674;2023-09-12T13:36:13;99729.72;;;34.37;34.58
45323;BME280;31382;50.200;8.674;2023-09-12T13:41:14;99736.19;;;34.53;34.15
45323;BME280;31382;50.200;8.674;2023-09-12T13:46:16;99735.25;;;34.62;34.30
45323;BME280;31382;50.200;8.674;2023-09-12T13:51:17;99736.50;;;35.05;33.87
45323;BME280;31382;50.200;8.674;2023-09-12T13:56:19;99732.47;;;35.02;33.40
45323;BME280;31382;50.200;8.674;2023-09-12T14:01:20;99734.84;;;34.88;33.00
45323;BME280;31382;50.200;8.674;2023-09-12T14:06:34;99725.88;;;35.39;33.39
45323;BME280;31382;50.200;8.674;2023-09-12T14:11:37;99725.41;;;35.81;32.49
45323;BME280;31382;50.200;8.674;2023-09-12T14:16:39;99722.97;;;36.30;31.80
45323;BME280;31382;50.200;8.674;2023-09-12T14:21:42;99721.19;;;36.97;31.43
45323;BME280;31382;50.200;8.674;2023-09-12T14:26:47;99707.88;;;38.05;29.89
45323;BME280;31382;50.200;8.674;2023-09-12T14:31:50;99713.28;;;39.91;27.94
45323;BME280;31382;50.200;8.674;2023-09-12T14:36:54;99714.88;;;40.54;26.52
45323;BME280;31382;50.200;8.674;2023-09-12T14:41:56;99709.03;;;40.92;25.49
45323;BME280;31382;50.200;8.674;2023-09-12T14:46:58;99699.59;;;40.52;26.19
45323;BME280;31382;50.200;8.674;2023-09-12T14:52:01;99692.53;;;40.17;26.08
45323;BME280;31382;50.200;8.674;2023-09-12T14:57:05;99690.44;;;40.03;26.33
45323;BME280;31382;50.200;8.674;2023-09-12T15:02:06;99684.91;;;39.62;26.37
45323;BME280;31382;50.200;8.674;2023-09-12T15:07:08;99681.25;;;38.79;27.77
45323;BME280;31382;50.200;8.674;2023-09-12T15:12:10;99679.16;;;38.12;28.56
45323;BME280;31382;50.200;8.674;2023-09-12T15:17:11;99671.94;;;37.61;28.95
45323;BME280;31382;50.200;8.674;2023-09-12T15:22:13;99675.97;;;37.18;29.63
45323;BME280;31382;50.200;8.674;2023-09-12T15:27:14;99675.19;;;36.78;30.04
45323;BME280;31382;50.200;8.674;2023-09-12T15:32:16;99666.19;;;36.49;30.19
45323;BME280;31382;50.200;8.674;2023-09-12T15:37:17;99667.56;;;36.20;31.05
45323;BME280;31382;50.200;8.674;2023-09-12T15:42:21;99665.25;;;36.06;31.07
45323;BME280;31382;50.200;8.674;2023-09-12T15:47:36;99652.28;;;35.82;31.51
45323;BME280;31382;50.200;8.674;2023-09-12T15:52:38;99652.03;;;35.71;31.68
45323;BME280;31382;50.200;8.674;2023-09-12T15:57:40;99647.97;;;35.53;31.46
45323;BME280;31382;50.200;8.674;2023-09-12T16:02:41;99643.75;;;35.43;31.84
45323;BME280;31382;50.200;8.674;2023-09-12T16:07:44;99646.78;;;35.22;32.05
45323;BME280;31382;50.200;8.674;2023-09-12T16:12:45;99645.63;;;35.23;31.97
45323;BME280;31382;50.200;8.674;2023-09-12T16:17:47;99645.50;;;35.04;32.94
45323;BME280;31382;50.200;8.674;2023-09-12T16:22:48;99646.75;;;34.22;35.02
45323;BME280;31382;50.200;8.674;2023-09-12T16:27:50;99650.94;;;33.54;36.60
45323;BME280;31382;50.200;8.674;2023-09-12T16:32:52;99662.38;;;33.15;37.37
45323;BME280;31382;50.200;8.674;2023-09-12T16:38:00;99657.66;;;32.95;37.67
45323;BME280;31382;50.200;8.674;2023-09-12T16:43:02;99659.41;;;32.66;38.11
45323;BME280;31382;50.200;8.674;2023-09-12T16:48:04;99660.91;;;32.21;39.25
45323;BME280;31382;50.200;8.674;2023-09-12T16:53:06;99658.53;;;32.11;39.46
45323;BME280;31382;50.200;8.674;2023-09-12T16:58:09;99647.97;;;31.96;39.68
45323;BME280;31382;50.200;8.674;2023-09-12T17:03:10;99651.88;;;31.65;40.60
45323;BME280;31382;50.200;8.674;2023-09-12T17:08:12;99651.47;;;31.46;41.21
45323;BME280;31382;50.200;8.674;2023-09-12T17:13:13;99650.97;;;31.05;42.14
45323;BME280;31382;50.200;8.674;2023-09-12T17:18:15;99663.06;;;30.74;42.81
45323;BME280;31382;50.200;8.674;2023-09-12T17:23:16;99666.31;;;30.59;43.11
45323;BME280;31382;50.200;8.674;2023-09-12T17:28:18;99675.91;;;30.27;43.68
45323;BME280;31382;50.200;8.674;2023-09-12T17:33:19;99660.09;;;30.27;43.87
45323;BME280;31382;50.200;8.674;2023-09-12T17:38:21;99655.84;;;30.12;44.42
45323;BME280;31382;50.200;8.674;2023-09-12T17:43:22;99642.63;;;30.00;44.50
45323;BME280;31382;50.200;8.674;2023-09-12T17:48:24;99627.75;;;29.79;44.64
45323;BME280;31382;50.200;8.674;2023-09-12T17:53:25;99647.22;;;29.56;45.01
45323;BME280;31382;50.200;8.674;2023-09-12T17:58:28;99658.66;;;29.32;45.43
45323;BME280;31382;50.200;8.674;2023-09-12T18:03:30;99655.53;;;29.25;45.85
45323;BME280;31382;50.200;8.674;2023-09-12T18:08:33;99672.41;;;29.15;46.24
45323;BME280;31382;50.200;8.674;2023-09-12T18:13:34;99686.06;;;29.11;46.01
45323;BME280;31382;50.200;8.674;2023-09-12T18:18:36;99701.84;;;28.88;46.88
45323;BME280;31382;50.200;8.674;2023-09-12T18:23:37;99720.66;;;28.77;47.41
45323;BME280;31382;50.200;8.674;2023-09-12T18:28:42;99746.66;;;28.26;49.34
45323;BME280;31382;50.200;8.674;2023-09-12T18:33:44;99722.78;;;27.47;53.63
45323;BME280;31382;50.200;8.674;2023-09-12T18:38:47;99695.22;;;26.95;56.74
45323;BME280;31382;50.200;8.674;2023-09-12T18:43:50;99690.91;;;26.89;58.70
45323;BME280;31382;50.200;8.674;2023-09-12T18:48:53;99689.69;;;26.62;58.90
45323;BME280;31382;50.200;8.674;2023-09-12T18:53:54;99696.13;;;26.34;60.37
45323;BME280;31382;50.200;8.674;2023-09-12T18:58:56;99687.63;;;26.11;61.01
45323;BME280;31382;50.200;8.674;2023-09-12T19:03:57;99693.09;;;25.87;61.12
45323;BME280;31382;50.200;8.674;2023-09-12T19:08:59;99686.19;;;25.41;63.71
45323;BME280;31382;50.200;8.674;2023-09-12T19:14:00;99666.72;;;25.38;63.53
45323;BME280;31382;50.200;8.674;2023-09-12T19:19:02;99630.22;;;25.51;63.90
45323;BME280;31382;50.200;8.674;2023-09-12T19:24:04;99599.97;;;25.27;64.38
45323;BME280;31382;50.200;8.674;2023-09-12T19:29:07;99590.00;;;25.31;64.58
45323;BME280;31382;50.200;8.674;2023-09-12T19:34:08;99565.19;;;25.36;64.66
45323;BME280;31382;50.200;8.674;2023-09-12T19:39:10;99735.84;;;24.91;66.67
45323;BME280;31382;50.200;8.674;2023-09-12T19:44:11;99871.16;;;23.46;69.69
45323;BME280;31382;50.200;8.674;2023-09-12T19:49:13;99875.94;;;21.28;74.46
45323;BME280;31382;50.200;8.674;2023-09-12T19:54:15;99862.66;;;20.60;75.77
45323;BME280;31382;50.200;8.674;2023-09-12T19:59:17;99864.13;;;20.29;76.51
45323;BME280;31382;50.200;8.674;2023-09-12T20:04:18;99828.22;;;20.20;76.65
45323;BME280;31382;50.200;8.674;2023-09-12T20:09:21;99819.06;;;20.26;76.64
45323;BME280;31382;50.200;8.674;2023-09-12T20:14:22;99833.06;;;20.35;76.31
45323;BME280;31382;50.200;8.674;2023-09-12T20:19:24;99835.09;;;20.23;76.06
45323;BME280;31382;50.200;8.674;2023-09-12T20:24:25;99830.22;;;20.25;76.02
45323;BME280;31382;50.200;8.674;2023-09-12T20:29:27;99820.03;;;20.20;75.65
45323;BME280;31382;50.200;8.674;2023-09-12T20:34:32;99815.34;;;20.37;75.08
45323;BME280;31382;50.200;8.674;2023-09-12T20:39:34;99814.56;;;20.59;74.84
45323;BME280;31382;50.200;8.674;2023-09-12T20:44:35;99818.84;;;20.77;74.20
45323;BME280;31382;50.200;8.674;2023-09-12T20:49:49;99811.22;;;20.79;74.35
45323;BME280;31382;50.200;8.674;2023-09-12T20:54:57;99826.63;;;20.63;75.42
45323;BME280;31382;50.200;8.674;2023-09-12T20:59:59;99837.97;;;20.55;75.74
45323;BME280;31382;50.200;8.674;2023-09-12T21:05:00;99840.97;;;20.75;75.03
45323;BME280;31382;50.200;8.674;2023-09-12T21:10:02;99837.47;;;20.80;75.00
45323;BME280;31382;50.200;8.674;2023-09-12T21:15:04;99833.06;;;20.79;75.11
45323;BME280;31382;50.200;8.674;2023-09-12T21:20:06;99837.00;;;20.88;75.07
45323;BME280;31382;50.200;8.674;2023-09-12T21:25:08;99841.34;;;20.84;75.86
45323;BME280;31382;50.200;8.674;2023-09-12T21:30:10;99859.06;;;20.82;76.17
45323;BME280;31382;50.200;8.674;2023-09-12T21:35:14;99855.91;;;20.95;75.78
45323;BME280;31382;50.200;8.674;2023-09-12T21:40:16;99866.25;;;20.88;75.85
45323;BME280;31382;50.200;8.674;2023-09-12T21:45:18;99862.66;;;20.87;75.53
45323;BME280;31382;50.200;8.674;2023-09-12T21:50:20;99874.47;;;20.93;75.23
45323;BME280;31382;50.200;8.674;2023-09-12T21:55:21;99875.34;;;20.93;75.62
45323;BME280;31382;50.200;8.674;2023-09-12T22:00:23;99873.19;;;21.00;74.93
45323;BME280;31382;50.200;8.674;2023-09-12T22:05:25;99876.59;;;20.86;75.61
45323;BME280;31382;50.200;8.674;2023-09-12T22:10:27;99877.44;;;20.86;75.53
45323;BME280;31382;50.200;8.674;2023-09-12T22:15:28;99885.69;;;20.91;74.92
45323;BME280;31382;50.200;8.674;2023-09-12T22:20:30;99901.56;;;20.94;75.21
45323;BME280;31382;50.200;8.674;2023-09-12T22:25:32;99891.19;;;20.96;74.74
45323;BME280;31382;50.200;8.674;2023-09-12T22:30:34;99890.38;;;20.96;74.94
45323;BME280;31382;50.200;8.674;2023-09-12T22:35:35;99883.81;;;20.97;74.76
45323;BME280;31382;50.200;8.674;2023-09-12T22:40:37;99887.31;;;20.92;74.99
45323;BME280;31382;50.200;8.674;2023-09-12T22:45:43;99892.78;;;20.92;74.53
45323;BME280;31382;50.200;8.674;2023-09-12T22:50:46;99899.53;;;20.85;74.93
45323;BME280;31382;50.200;8.674;2023-09-12T22:55:48;99890.41;;;20.74;75.19
45323;BME280;31382;50.200;8.674;2023-09-12T23:00:50;99908.16;;;20.54;75.25
45323;BME280;31382;50.200;8.674;2023-09-12T23:05:52;99918.75;;;20.51;75.21
45323;BME280;31382;50.200;8.674;2023-09-12T23:10:53;99915.69;;;20.47;74.93
45323;BME280;31382;50.200;8.674;2023-09-12T23:15:55;99915.94;;;20.46;74.68
45323;BME280;31382;50.200;8.674;2023-09-12T23:20:59;99920.75;;;20.38;74.61
45323;BME280;31382;50.200;8.674;2023-09-12T23:26:00;99923.59;;;20.27;74.73
45323;BME280;31382;50.200;8.674;2023-09-12T23:31:02;99930.97;;;20.26;74.41
45323;BME280;31382;50.200;8.674;2023-09-12T23:36:04;99927.91;;;20.23;74.45
45323;BME280;31382;50.200;8.674;2023-09-12T23:41:06;99922.44;;;20.23;74.33
45323;BME280;31382;50.200;8.674;2023-09-12T23:46:08;99928.72;;;20.23;74.78
45323;BME280;31382;50.200;8.674;2023-09-12T23:51:09;99930.31;;;20.19;74.68
45323;BME280;31382;50.200;8.674;2023-09-12T23:56:11;99938.75;;;20.00;75.28
